Time;durP1;ratioP1;P1;durP2;ratioP2;P2;SDS_P1;SDS_P2;PMS_P1;PMS_P2;Temp;Humidity;BMP_temperature;BMP_pressure;BME280_temperature;BME280_humidity;BME280_pressure;Samples;Min_cycle;Max_cycle;Signal;HPM_P1;HPM_P2
2023/05/04 00:00:33;;;;;;;0.40;0.20;;;;;;;13.86;100.00;95461.06;5070940;28;20499;-61
2023/05/04 00:03:02;;;;;;;0.40;0.33;;;;;;;13.82;100.00;95456.59;5069853;28;20460;-61
2023/05/04 00:05:30;;;;;;;0.30;0.30;;;;;;;13.84;100.00;95465.91;5071128;28;20430;-61
2023/05/04 00:07:58;;;;;;;0.50;0.30;;;;;;;14.11;100.00;95457.28;5071481;28;20445;-62
2023/05/04 00:10:27;;;;;;;0.50;0.50;;;;;;;14.42;100.00;95457.69;5073755;28;20443;-62
2023/05/04 00:12:56;;;;;;;0.60;0.40;;;;;;;14.08;100.00;95441.06;5074026;28;20447;-62
2023/05/04 00:15:24;;;;;;;0.83;0.70;;;;;;;13.29;100.00;95442.56;5074829;28;20509;-62
2023/05/04 00:17:54;;;;;;;1.00;1.00;;;;;;;13.01;100.00;95430.84;5074966;28;20529;-61
2023/05/04 00:20:22;;;;;;;0.70;0.43;;;;;;;13.39;100.00;95442.47;5071035;28;20441;-61
2023/05/04 00:22:51;;;;;;;0.57;0.37;;;;;;;13.72;100.00;95440.75;5074497;28;20525;-60
2023/05/04 00:25:19;;;;;;;0.37;0.20;;;;;;;13.96;100.00;95441.50;5074116;28;20512;-61
2023/05/04 00:27:47;;;;;;;10.00;0.40;;;;;;;14.21;100.00;95430.50;5073312;28;20973;-61
2023/05/04 00:30:16;;;;;;;0.40;0.40;;;;;;;14.18;100.00;95436.41;5074594;28;20480;-61
2023/05/04 00:32:45;;;;;;;0.40;0.30;;;;;;;13.80;100.00;95376.97;5072884;28;20517;-60
2023/05/04 00:35:15;;;;;;;0.40;0.30;;;;;;;13.86;100.00;95423.00;5074255;28;20560;-61
2023/05/04 00:37:44;;;;;;;0.50;0.40;;;;;;;14.09;100.00;95429.34;5073992;28;20606;-61
2023/05/04 00:40:13;;;;;;;0.43;0.40;;;;;;;14.21;100.00;95421.69;5073573;28;20532;-61
2023/05/04 00:42:41;;;;;;;0.70;0.70;;;;;;;14.30;100.00;95419.97;5074188;28;20438;-61
2023/05/04 00:45:10;;;;;;;0.30;0.20;;;;;;;14.35;100.00;95414.56;5073770;28;20523;-60
2023/05/04 00:47:39;;;;;;;0.50;0.40;;;;;;;14.04;100.00;95427.53;5073519;28;20438;-61
2023/05/04 00:50:09;;;;;;;0.53;0.47;;;;;;;13.97;100.00;95422.56;5073694;28;20496;-61
2023/05/04 00:52:40;;;;;;;0.50;0.50;;;;;;;13.91;100.00;95429.03;5072668;28;20539;-61
2023/05/04 00:55:09;;;;;;;0.73;0.73;;;;;;;14.08;100.00;95411.75;5073491;28;20476;-61
2023/05/04 00:57:38;;;;;;;0.47;0.40;;;;;;;14.27;100.00;95424.00;5067184;28;20525;-61
2023/05/04 01:00:09;;;;;;;0.40;0.30;;;;;;;14.33;100.00;95424.75;5065700;28;20503;-61
2023/05/04 01:02:37;;;;;;;0.43;0.40;;;;;;;14.39;100.00;95426.25;5072624;28;20449;-60
2023/05/04 01:05:07;;;;;;;2.47;0.67;;;;;;;13.73;100.00;95357.91;5072498;28;20438;-61
2023/05/04 01:07:47;;;;;;;0.70;0.40;;;;;;;14.38;100.00;95432.66;5073149;28;20823;-61
2023/05/04 01:10:22;;;;;;;0.40;0.30;;;;;;;14.42;100.00;95418.47;5073187;28;20825;-61
2023/05/04 01:12:56;;;;;;;0.40;0.30;;;;;;;14.27;100.00;95424.00;5073841;28;20441;-61
2023/05/04 01:15:25;;;;;;;0.40;0.37;;;;;;;14.29;100.00;95429.84;5073201;28;20477;-61
2023/05/04 01:17:53;;;;;;;0.40;0.37;;;;;;;14.41;100.00;95427.56;5072884;28;20442;-61
2023/05/04 01:20:22;;;;;;;0.40;0.40;;;;;;;14.23;100.00;95424.88;5073056;28;20790;-61
2023/05/04 01:22:51;;;;;;;0.40;0.40;;;;;;;14.49;100.00;95420.78;5073101;28;20449;-62
2023/05/04 01:25:20;;;;;;;0.40;0.30;;;;;;;14.52;100.00;95439.63;5071625;28;20438;-61
2023/05/04 01:27:56;;;;;;;0.50;0.40;;;;;;;14.37;100.00;95431.09;5072803;28;20826;-61
2023/05/04 01:30:30;;;;;;;0.40;0.30;;;;;;;14.16;100.00;95429.78;5072045;28;20475;-61
2023/05/04 01:33:00;;;;;;;0.50;0.33;;;;;;;14.39;100.00;95434.28;5071728;28;20533;-61
2023/05/04 01:35:29;;;;;;;1.27;0.50;;;;;;;14.35;100.00;95438.56;5072279;28;21300;-61
2023/05/04 01:37:59;;;;;;;0.50;0.50;;;;;;;14.36;100.00;95438.31;5073246;28;20521;-61
2023/05/04 01:40:27;;;;;;;0.40;0.30;;;;;;;14.36;100.00;95414.31;5073099;28;20470;-61
2023/05/04 01:42:56;;;;;;;0.50;0.37;;;;;;;14.52;100.00;95434.31;5072453;28;20935;-61
2023/05/04 01:45:24;;;;;;;0.40;0.30;;;;;;;14.45;100.00;95433.09;5071958;28;20989;-61
2023/05/04 01:47:52;;;;;;;0.40;0.40;;;;;;;14.33;100.00;95432.75;5072031;28;20437;-61
2023/05/04 01:50:20;;;;;;;1.00;0.47;;;;;;;13.98;100.00;95432.16;5071811;28;20437;-61
2023/05/04 01:52:49;;;;;;;0.70;0.70;;;;;;;13.63;100.00;95435.28;5071877;28;20445;-60
2023/05/04 01:55:19;;;;;;;0.70;0.60;;;;;;;13.68;100.00;95431.75;5072684;28;20475;-60
2023/05/04 01:57:47;;;;;;;0.57;0.57;;;;;;;13.87;100.00;95433.34;5046658;28;20528;-60
2023/05/04 02:00:16;;;;;;;0.40;0.30;;;;;;;13.55;100.00;95416.47;5072698;28;20814;-60
2023/05/04 02:02:44;;;;;;;0.40;0.30;;;;;;;13.65;100.00;95424.31;5072533;28;20437;-60
2023/05/04 02:05:12;;;;;;;0.63;0.60;;;;;;;13.82;100.00;95419.31;5071882;28;20452;-60
2023/05/04 02:07:41;;;;;;;0.40;0.30;;;;;;;13.72;100.00;95414.09;5071882;28;20473;-61
2023/05/04 02:10:10;;;;;;;0.40;0.40;;;;;;;13.72;100.00;95430.09;5070836;28;20439;-60
2023/05/04 02:12:41;;;;;;;0.70;0.70;;;;;;;13.56;100.00;95423.38;5072252;28;20926;-60
2023/05/04 02:15:11;;;;;;;0.40;0.30;;;;;;;12.82;100.00;95323.59;5070845;28;20441;-60
2023/05/04 02:17:39;;;;;;;0.40;0.30;;;;;;;13.70;100.00;95430.38;5070654;28;20473;-60
2023/05/04 02:20:09;;;;;;;0.80;0.80;;;;;;;14.10;100.00;95425.59;5071826;28;20521;-60
2023/05/04 02:22:37;;;;;;;1.20;0.57;;;;;;;14.19;100.00;95418.53;5071686;28;20441;-60
2023/05/04 02:25:07;;;;;;;0.70;0.60;;;;;;;14.36;100.00;95427.63;5070983;28;20977;-60
2023/05/04 02:27:35;;;;;;;0.50;0.40;;;;;;;13.89;100.00;95427.72;5071949;28;20552;-60
2023/05/04 02:30:06;;;;;;;0.60;0.50;;;;;;;13.84;100.00;95428.59;5071746;28;21209;-60
2023/05/04 02:32:35;;;;;;;0.60;0.40;;;;;;;13.64;100.00;95428.06;5070938;28;20481;-60
2023/05/04 02:35:03;;;;;;;0.57;0.40;;;;;;;13.36;100.00;95430.50;5045762;28;20499;-60
2023/05/04 02:37:32;;;;;;;0.83;0.83;;;;;;;13.23;100.00;95431.19;5071807;28;20478;-60
2023/05/04 02:40:00;;;;;;;0.47;0.47;;;;;;;13.49;100.00;95429.03;5072093;28;20890;-60
2023/05/04 02:42:29;;;;;;;1.70;0.50;;;;;;;13.25;100.00;95436.25;5071274;28;20445;-60
2023/05/04 02:44:57;;;;;;;0.90;0.90;;;;;;;13.38;100.00;95440.91;5071603;28;20485;-60
2023/05/04 02:47:27;;;;;;;0.40;0.40;;;;;;;13.60;100.00;95437.69;5070648;28;20812;-60
2023/05/04 02:49:55;;;;;;;0.40;0.30;;;;;;;13.84;100.00;95443.78;5072110;28;20793;-60
2023/05/04 02:52:23;;;;;;;0.50;0.40;;;;;;;13.62;100.00;95447.00;5070775;28;20440;-60
2023/05/04 02:54:51;;;;;;;0.40;0.33;;;;;;;13.86;100.00;95441.66;5071504;28;20444;-60
2023/05/04 02:57:20;;;;;;;0.60;0.40;;;;;;;14.07;100.00;95450.13;5070882;28;20485;-60
2023/05/04 02:59:48;;;;;;;0.40;0.30;;;;;;;14.16;100.00;95445.78;5070360;28;20514;-60
2023/05/04 03:02:17;;;;;;;0.40;0.30;;;;;;;13.82;100.00;95427.28;5071233;28;20434;-60
2023/05/04 03:04:46;;;;;;;0.40;0.30;;;;;;;14.11;100.00;95435.19;5070780;28;20437;-61
2023/05/04 03:07:14;;;;;;;0.40;0.30;;;;;;;14.24;100.00;95429.94;5069385;28;20949;-60
2023/05/04 03:09:43;;;;;;;0.47;0.30;;;;;;;14.26;100.00;95424.28;5070645;28;20438;-60
2023/05/04 03:12:14;;;;;;;1.23;1.13;;;;;;;14.34;100.00;95445.00;5070454;28;20946;-60
2023/05/04 03:14:43;;;;;;;0.50;0.40;;;;;;;14.41;100.00;95440.09;5071675;28;20438;-60
2023/05/04 03:17:11;;;;;;;0.50;0.40;;;;;;;14.44;100.00;95443.00;5071325;28;21025;-60
2023/05/04 03:19:39;;;;;;;0.30;0.20;;;;;;;14.44;100.00;95450.19;5070142;28;21022;-61
2023/05/04 03:22:09;;;;;;;0.30;0.20;;;;;;;14.42;100.00;95450.47;5045754;28;20443;-60
2023/05/04 03:24:38;;;;;;;0.40;0.30;;;;;;;14.37;100.00;95455.09;5071052;28;20797;-60
2023/05/04 03:27:07;;;;;;;0.40;0.40;;;;;;;14.40;100.00;95446.50;5069905;28;20534;-60
2023/05/04 03:29:36;;;;;;;0.30;0.20;;;;;;;14.45;100.00;95455.22;5068875;28;20448;-60
2023/05/04 03:32:04;;;;;;;0.50;0.47;;;;;;;14.46;100.00;95459.50;5058322;28;20474;-60
2023/05/04 03:34:33;;;;;;;0.30;0.20;;;;;;;14.49;100.00;95458.13;5070316;28;20441;-60
2023/05/04 03:37:01;;;;;;;0.30;0.20;;;;;;;14.47;100.00;95468.28;5070088;28;20568;-60
2023/05/04 03:39:31;;;;;;;0.40;0.30;;;;;;;14.57;100.00;95466.22;5070530;28;20445;-60
2023/05/04 03:41:59;;;;;;;0.30;0.30;;;;;;;14.53;100.00;95469.78;5071307;28;20434;-60
2023/05/04 03:44:28;;;;;;;0.40;0.20;;;;;;;14.44;100.00;95471.53;5073924;28;20448;-60
2023/05/04 03:46:56;;;;;;;0.37;0.30;;;;;;;14.37;100.00;95452.44;5073676;28;20525;-61
2023/05/04 03:49:25;;;;;;;0.50;0.50;;;;;;;14.48;100.00;95480.53;5073890;28;20520;-60
2023/05/04 03:51:53;;;;;;;0.40;0.40;;;;;;;14.57;100.00;95481.47;5074602;28;20448;-60
2023/05/04 03:54:21;;;;;;;0.43;0.43;;;;;;;14.11;100.00;95491.16;5074434;28;20445;-61
2023/05/04 03:56:51;;;;;;;0.50;0.43;;;;;;;14.13;100.00;95486.31;5074552;28;20479;-59
2023/05/04 03:59:19;;;;;;;0.57;0.50;;;;;;;13.90;100.00;95477.28;5074323;28;20587;-59
2023/05/04 04:01:47;;;;;;;1.30;0.70;;;;;;;13.76;100.00;95501.16;5073903;28;20429;-60
2023/05/04 04:04:16;;;;;;;0.50;0.50;;;;;;;13.81;100.00;95489.66;5074483;28;20469;-60
2023/05/04 04:06:44;;;;;;;0.40;0.40;;;;;;;13.93;100.00;95482.84;5073451;28;20445;-60
2023/05/04 04:09:13;;;;;;;0.50;0.50;;;;;;;13.34;100.00;95490.44;5073601;28;20442;-59
2023/05/04 04:11:41;;;;;;;0.63;0.50;;;;;;;13.04;100.00;95506.66;5073440;28;21031;-60
2023/05/04 04:14:11;;;;;;;0.83;0.80;;;;;;;12.60;100.00;95454.34;5074006;28;20495;-60
2023/05/04 04:16:39;;;;;;;2.07;1.00;;;;;;;12.86;100.00;95517.97;5073176;28;20509;-60
2023/05/04 04:19:07;;;;;;;0.50;0.33;;;;;;;13.05;100.00;95522.38;5073649;28;20444;-60
2023/05/04 04:21:36;;;;;;;0.90;0.90;;;;;;;13.12;100.00;95509.56;5073216;28;20517;-60
2023/05/04 04:24:05;;;;;;;0.40;0.40;;;;;;;13.37;100.00;95511.19;5074530;28;20444;-60
2023/05/04 04:26:34;;;;;;;0.40;0.40;;;;;;;13.51;100.00;95514.75;5073953;28;21028;-59
2023/05/04 04:29:03;;;;;;;0.40;0.40;;;;;;;13.21;100.00;95515.03;5074255;28;20429;-60
2023/05/04 04:31:33;;;;;;;0.43;0.40;;;;;;;12.83;100.00;95511.34;5073922;28;20453;-60
2023/05/04 04:34:01;;;;;;;0.77;0.77;;;;;;;12.59;100.00;95519.25;5074465;28;20437;-60
2023/05/04 04:36:30;;;;;;;5.30;1.13;;;;;;;12.55;100.00;95520.84;5073848;28;20526;-59
2023/05/04 04:38:58;;;;;;;0.40;0.30;;;;;;;12.44;100.00;95530.00;5073551;28;20499;-59
2023/05/04 04:41:27;;;;;;;0.77;0.60;;;;;;;12.49;100.00;95532.63;5073709;28;20433;-60
2023/05/04 04:43:55;;;;;;;1.00;1.00;;;;;;;12.37;100.00;95515.41;5073843;28;20480;-59
2023/05/04 04:46:23;;;;;;;0.50;0.47;;;;;;;12.53;100.00;95528.31;5073578;28;20433;-59
2023/05/04 04:48:54;;;;;;;0.50;0.40;;;;;;;12.70;100.00;95527.94;5072681;28;20473;-59
2023/05/04 04:51:22;;;;;;;0.77;0.77;;;;;;;13.24;100.00;95527.81;5062616;28;20468;-60
2023/05/04 04:53:51;;;;;;;0.53;0.53;;;;;;;13.23;100.00;95523.56;5073081;28;20477;-60
2023/05/04 04:56:20;;;;;;;0.93;0.50;;;;;;;13.05;100.00;95540.19;5073595;28;20441;-59
2023/05/04 04:58:49;;;;;;;1.07;0.67;;;;;;;13.11;100.00;95536.44;5073590;28;20473;-59
2023/05/04 05:01:18;;;;;;;0.60;0.57;;;;;;;13.57;100.00;95534.13;5074120;28;20469;-59
2023/05/04 05:03:47;;;;;;;0.60;0.43;;;;;;;13.83;100.00;95527.47;5073327;28;20513;-60
2023/05/04 05:06:17;;;;;;;1.70;0.60;;;;;;;14.18;100.00;95529.69;5073910;28;21023;-60
2023/05/04 05:08:45;;;;;;;0.40;0.40;;;;;;;14.36;100.00;95531.63;5059711;28;20434;-59
2023/05/04 05:11:14;;;;;;;0.47;0.40;;;;;;;14.46;100.00;95522.69;5073822;28;20447;-59
2023/05/04 05:13:42;;;;;;;0.90;0.50;;;;;;;14.28;100.00;95529.56;5073408;28;20803;-59
2023/05/04 05:16:10;;;;;;;0.73;0.73;;;;;;;13.94;100.00;95529.72;5073637;28;20979;-59
2023/05/04 05:18:39;;;;;;;0.80;0.80;;;;;;;13.73;100.00;95536.38;5073557;28;20473;-60
2023/05/04 05:21:08;;;;;;;0.80;0.80;;;;;;;13.97;100.00;95529.16;5073574;28;20456;-60
2023/05/04 05:23:37;;;;;;;0.60;0.53;;;;;;;13.60;100.00;95489.09;5073644;28;20862;-61
2023/05/04 05:26:06;;;;;;;1.10;1.00;;;;;;;13.95;100.00;95533.97;5073725;28;20511;-60
2023/05/04 05:28:34;;;;;;;1.33;1.33;;;;;;;14.03;100.00;95527.22;5047601;28;20799;-61
2023/05/04 05:31:02;;;;;;;0.77;0.77;;;;;;;14.15;100.00;95526.81;5073470;28;20484;-60
2023/05/04 05:33:31;;;;;;;1.47;1.20;;;;;;;14.32;100.00;95537.81;5073085;28;20524;-60
2023/05/04 05:35:59;;;;;;;0.50;0.50;;;;;;;14.23;100.00;95534.16;5072808;28;20440;-61
2023/05/04 05:38:28;;;;;;;0.40;0.40;;;;;;;14.38;100.00;95534.78;5072846;28;21047;-61
2023/05/04 05:40:57;;;;;;;0.70;0.67;;;;;;;14.54;100.00;95544.19;5072324;28;20448;-61
2023/05/04 05:43:26;;;;;;;0.40;0.30;;;;;;;14.84;100.00;95553.63;5073164;28;20514;-62
2023/05/04 05:45:54;;;;;;;0.53;0.53;;;;;;;14.81;100.00;95542.72;5072298;28;20452;-62
2023/05/04 05:48:22;;;;;;;0.83;0.83;;;;;;;14.93;100.00;95551.06;5072977;28;20449;-62
2023/05/04 05:50:51;;;;;;;0.90;0.40;;;;;;;14.96;100.00;95550.50;5072246;28;20958;-62
2023/05/04 05:53:19;;;;;;;0.50;0.40;;;;;;;14.67;100.00;95550.69;5072696;28;20469;-62
2023/05/04 05:55:47;;;;;;;0.50;0.50;;;;;;;14.73;100.00;95549.50;5072492;28;20930;-60
2023/05/04 05:58:17;;;;;;;0.37;0.27;;;;;;;14.90;100.00;95536.44;5072633;28;20844;-62
2023/05/04 06:00:46;;;;;;;0.37;0.30;;;;;;;14.90;100.00;95557.00;5072207;28;20437;-62
2023/05/04 06:03:14;;;;;;;0.40;0.30;;;;;;;14.83;100.00;95552.03;5072751;28;20445;-62
2023/05/04 06:05:43;;;;;;;0.40;0.30;;;;;;;15.06;100.00;95553.00;5071281;28;20481;-62
2023/05/04 06:08:11;;;;;;;0.40;0.40;;;;;;;14.88;100.00;95556.47;5071759;28;20437;-62
2023/05/04 06:10:39;;;;;;;0.40;0.30;;;;;;;15.19;100.00;95550.41;5072281;28;20539;-62
2023/05/04 06:13:07;;;;;;;0.40;0.30;;;;;;;15.13;100.00;95559.56;5072175;28;20473;-62
2023/05/04 06:15:37;;;;;;;0.40;0.30;;;;;;;15.17;100.00;95549.91;5072172;28;20484;-62
2023/05/04 06:18:06;;;;;;;0.67;0.53;;;;;;;15.20;100.00;95551.97;5071392;28;20473;-62
2023/05/04 06:20:34;;;;;;;0.30;0.30;;;;;;;15.32;100.00;95540.03;5070322;28;20536;-62
2023/05/04 06:23:03;;;;;;;0.50;0.30;;;;;;;15.33;100.00;95539.72;5070803;28;20464;-62
2023/05/04 06:25:31;;;;;;;0.40;0.30;;;;;;;15.18;100.00;95551.47;5070143;28;21168;-63
2023/05/04 06:27:59;;;;;;;1.20;0.60;;;;;;;15.21;100.00;95552.75;5070256;28;20495;-62
2023/05/04 06:30:28;;;;;;;0.60;0.60;;;;;;;15.16;100.00;95558.19;5070501;28;20441;-63
2023/05/04 06:32:58;;;;;;;0.47;0.30;;;;;;;14.78;100.00;95498.72;5070557;28;20500;-62
2023/05/04 06:35:28;;;;;;;0.40;0.40;;;;;;;15.11;100.00;95548.38;5072367;28;20437;-62
2023/05/04 06:37:57;;;;;;;0.40;0.40;;;;;;;15.28;100.00;95548.63;5071964;28;20532;-62
2023/05/04 06:40:26;;;;;;;0.50;0.50;;;;;;;15.38;100.00;95554.91;5072106;28;20946;-62
2023/05/04 06:42:54;;;;;;;0.37;0.30;;;;;;;15.71;100.00;95551.91;5066985;28;20446;-62
2023/05/04 06:45:23;;;;;;;0.30;0.20;;;;;;;15.68;100.00;95554.41;5063943;28;20445;-62
2023/05/04 06:47:52;;;;;;;0.30;0.20;;;;;;;15.97;100.00;95557.56;5072113;28;20444;-62
2023/05/04 06:50:22;;;;;;;0.40;0.40;;;;;;;16.04;100.00;95560.63;5071795;28;20438;-63
2023/05/04 06:52:51;;;;;;;0.40;0.30;;;;;;;16.04;100.00;95559.88;5071864;28;20468;-62
2023/05/04 06:55:20;;;;;;;0.50;0.30;;;;;;;16.04;100.00;95555.28;5072211;28;20434;-62
2023/05/04 06:57:48;;;;;;;0.40;0.40;;;;;;;16.03;100.00;95556.41;5046254;28;20473;-61
2023/05/04 07:00:17;;;;;;;0.63;0.40;;;;;;;15.71;100.00;95556.47;5071607;28;20525;-59
2023/05/04 07:02:45;;;;;;;0.30;0.20;;;;;;;15.76;100.00;95553.72;5072098;28;20878;-60
2023/05/04 07:05:14;;;;;;;0.63;0.60;;;;;;;15.64;100.00;95554.19;5071338;28;20499;-60
2023/05/04 07:07:43;;;;;;;1.63;0.50;;;;;;;15.83;100.00;95559.47;5071595;28;20437;-62
2023/05/04 07:10:13;;;;;;;0.40;0.30;;;;;;;15.94;100.00;95555.50;5071602;28;22203;-61
2023/05/04 07:12:42;;;;;;;0.43;0.40;;;;;;;16.44;98.21;95559.81;5071729;28;20528;-61
2023/05/04 07:15:11;;;;;;;0.50;0.40;;;;;;;16.35;98.54;95558.16;5071380;28;20437;-60
2023/05/04 07:17:40;;;;;;;0.40;0.30;;;;;;;16.80;99.93;95556.44;5071411;28;20430;-61
2023/05/04 07:20:09;;;;;;;0.40;0.30;;;;;;;16.76;100.00;95566.13;5070960;28;20444;-62
2023/05/04 07:22:37;;;;;;;0.80;0.50;;;;;;;16.60;100.00;95563.00;5071593;28;20465;-62
2023/05/04 07:25:08;;;;;;;0.40;0.30;;;;;;;16.33;100.00;95566.50;5071607;28;20483;-62
2023/05/04 07:27:42;;;;;;;0.47;0.30;;;;;;;16.44;100.00;95565.16;5071107;28;20565;-63
2023/05/04 07:30:11;;;;;;;0.40;0.30;;;;;;;16.48;100.00;95574.19;5071335;28;20529;-65
2023/05/04 07:32:39;;;;;;;0.40;0.30;;;;;;;16.09;100.00;95573.91;5070835;28;20442;-64
2023/05/04 07:35:08;;;;;;;0.50;0.40;;;;;;;16.33;100.00;95553.13;5071255;28;20449;-65
2023/05/04 07:37:37;;;;;;;0.70;0.70;;;;;;;16.68;100.00;95569.53;5071027;28;20437;-66
2023/05/04 07:40:08;;;;;;;0.40;0.30;;;;;;;16.84;100.00;95568.91;5071435;28;20473;-65
2023/05/04 07:42:36;;;;;;;0.40;0.30;;;;;;;16.19;100.00;95509.53;5071365;28;20441;-65
2023/05/04 07:45:07;;;;;;;0.50;0.33;;;;;;;16.51;100.00;95564.78;5071708;28;20955;-64
2023/05/04 07:47:35;;;;;;;0.53;0.50;;;;;;;16.55;100.00;95568.47;5071584;28;20492;-62
2023/05/04 07:50:04;;;;;;;0.50;0.43;;;;;;;17.06;100.00;95571.59;5071395;28;20441;-63
2023/05/04 07:52:33;;;;;;;0.73;0.70;;;;;;;17.09;100.00;95571.00;5070782;28;20445;-63
2023/05/04 07:55:01;;;;;;;0.50;0.40;;;;;;;17.66;94.93;95571.22;5070803;28;20441;-62
2023/05/04 07:57:32;;;;;;;1.27;0.60;;;;;;;17.72;89.88;95580.72;5071470;28;20820;-62
2023/05/04 08:00:00;;;;;;;1.00;0.67;;;;;;;18.10;94.68;95576.50;5070984;28;20477;-62
2023/05/04 08:02:29;;;;;;;1.20;1.20;;;;;;;18.33;91.19;95577.19;5070992;28;20514;-58
2023/05/04 08:04:57;;;;;;;0.50;0.50;;;;;;;18.56;87.90;95575.22;5071434;28;20450;-61
2023/05/04 08:07:25;;;;;;;0.93;0.60;;;;;;;18.82;87.76;95578.75;5070647;28;20484;-55
2023/05/04 08:09:55;;;;;;;0.60;0.60;;;;;;;18.35;86.00;95580.34;5070825;28;20477;-56
2023/05/04 08:12:25;;;;;;;1.07;1.07;;;;;;;18.15;86.08;95586.28;5070357;28;20469;-55
2023/05/04 08:14:55;;;;;;;0.40;0.33;;;;;;;17.58;85.79;95594.19;5069979;28;20448;-56
2023/05/04 08:17:23;;;;;;;0.50;0.40;;;;;;;17.68;85.99;95550.28;5070378;28;20429;-56
2023/05/04 08:19:52;;;;;;;0.40;0.30;;;;;;;18.56;85.54;95583.28;5069801;28;20974;-56
2023/05/04 08:22:20;;;;;;;0.80;0.80;;;;;;;18.34;80.56;95581.47;5070531;28;20538;-56
2023/05/04 08:24:48;;;;;;;0.40;0.33;;;;;;;18.07;79.85;95512.72;5071048;28;20531;-56
2023/05/04 08:27:17;;;;;;;0.40;0.33;;;;;;;18.52;85.07;95580.44;5070666;28;21062;-61
2023/05/04 08:29:45;;;;;;;2.80;1.77;;;;;;;18.61;80.13;95530.25;5072578;28;20488;-65
2023/05/04 08:32:16;;;;;;;1.60;0.30;;;;;;;19.36;79.37;95580.00;5075094;28;20512;-66
2023/05/04 08:34:44;;;;;;;0.50;0.47;;;;;;;19.01;77.03;95555.84;5074597;28;20464;-66
2023/05/04 08:37:13;;;;;;;0.40;0.30;;;;;;;19.31;77.56;95580.19;5073996;28;20440;-67
2023/05/04 08:39:41;;;;;;;0.67;0.60;;;;;;;18.69;76.33;95513.34;5074911;28;20505;-69
2023/05/04 08:42:10;;;;;;;0.50;0.47;;;;;;;19.08;73.97;95578.75;5074857;28;20442;-69
2023/05/04 08:44:38;;;;;;;0.77;0.53;;;;;;;18.95;73.82;95524.06;5074756;28;20430;-71
2023/05/04 08:47:09;;;;;;;0.57;0.57;;;;;;;19.74;74.49;95578.25;5074401;28;20498;-71
2023/05/04 08:49:39;;;;;;;0.60;0.30;;;;;;;18.07;76.44;95570.94;5048641;28;20434;-69
2023/05/04 08:52:09;;;;;;;4.17;0.93;;;;;;;17.71;75.38;95558.47;5073933;28;20447;-67
2023/05/04 08:54:41;;;;;;;2.67;1.20;;;;;;;18.56;75.14;95576.03;5074438;28;20507;-66
2023/05/04 08:57:10;;;;;;;0.63;0.40;;;;;;;18.74;73.52;95566.91;5074146;28;20507;-65
2023/05/04 08:59:39;;;;;;;0.40;0.30;;;;;;;19.18;72.35;95571.16;5074054;28;21056;-65
2023/05/04 09:02:13;;;;;;;0.40;0.30;;;;;;;19.63;71.58;95568.94;5074310;28;20467;-64
2023/05/04 09:04:43;;;;;;;0.40;0.30;;;;;;;19.35;71.16;95565.00;5074156;28;20521;-64
2023/05/04 09:07:11;;;;;;;0.67;0.67;;;;;;;19.37;73.42;95549.38;5074302;28;20438;-64
2023/05/04 09:09:40;;;;;;;0.60;0.60;;;;;;;19.11;73.71;95562.00;5073924;28;20469;-64
2023/05/04 09:12:08;;;;;;;0.40;0.30;;;;;;;18.72;75.94;95560.28;5073647;28;20476;-64
2023/05/04 09:14:37;;;;;;;0.50;0.50;;;;;;;18.81;73.21;95553.00;5073435;28;20477;-64
2023/05/04 09:17:13;;;;;;;0.40;0.20;;;;;;;18.91;72.40;95561.53;5074367;28;20441;-64
2023/05/04 09:19:43;;;;;;;0.53;0.30;;;;;;;18.94;73.07;95566.28;5074148;28;20511;-63
2023/05/04 09:22:15;;;;;;;0.37;0.23;;;;;;;18.74;73.58;95556.16;5074069;28;20446;-64
2023/05/04 09:24:45;;;;;;;0.70;0.37;;;;;;;18.88;71.84;95559.47;5073411;28;20483;-63
2023/05/04 09:27:16;;;;;;;0.60;0.60;;;;;;;18.88;72.85;95564.84;5073329;28;20469;-59
2023/05/04 09:29:53;;;;;;;0.40;0.30;;;;;;;18.55;73.50;95558.34;5073579;28;20444;-59
2023/05/04 09:32:22;;;;;;;0.40;0.30;;;;;;;18.68;72.28;95538.63;5073511;28;20433;-59
2023/05/04 09:34:54;;;;;;;0.53;0.30;;;;;;;18.48;73.63;95552.63;5066037;28;20446;-59
2023/05/04 09:37:22;;;;;;;0.53;0.40;;;;;;;18.66;73.36;95553.47;5073748;28;20442;-59
2023/05/04 09:39:54;;;;;;;1.10;0.37;;;;;;;18.44;73.94;95546.28;5072557;28;20836;-59
2023/05/04 09:42:23;;;;;;;0.40;0.30;;;;;;;18.70;73.78;95549.03;5073286;28;20442;-59
2023/05/04 09:45:09;;;;;;;0.40;0.30;;;;;;;19.04;72.88;95549.06;5073358;28;20529;-59
2023/05/04 09:47:39;;;;;;;0.40;0.37;;;;;;;18.40;72.87;95534.59;5072667;28;20442;-60
2023/05/04 09:50:16;;;;;;;0.40;0.37;;;;;;;18.28;74.42;95542.47;5073262;28;20442;-59
2023/05/04 09:52:49;;;;;;;0.80;0.80;;;;;;;18.21;78.30;95534.88;5072625;28;20430;-60
2023/05/04 09:55:18;;;;;;;0.70;0.40;;;;;;;17.57;76.18;95522.94;5072907;28;21003;-60
2023/05/04 09:57:48;;;;;;;0.93;0.50;;;;;;;17.73;77.88;95537.50;5072509;28;20830;-60
2023/05/04 10:00:18;;;;;;;0.87;0.87;;;;;;;17.92;81.24;95533.81;5072884;28;20478;-60
2023/05/04 10:03:05;;;;;;;0.50;0.40;;;;;;;17.71;85.02;95528.19;5072704;28;20434;-60
2023/05/04 10:05:38;;;;;;;0.40;0.30;;;;;;;18.08;81.93;95524.25;5072841;28;20445;-60
2023/05/04 10:08:08;;;;;;;0.50;0.30;;;;;;;18.07;80.39;95519.97;5072670;28;20457;-60
2023/05/04 10:10:39;;;;;;;0.50;0.40;;;;;;;18.35;80.44;95518.63;5072758;28;20807;-59
2023/05/04 10:13:07;;;;;;;0.40;0.30;;;;;;;18.73;77.01;95518.88;5072723;28;20507;-59
2023/05/04 10:15:50;;;;;;;0.80;0.43;;;;;;;18.40;78.47;95523.84;5072676;28;20995;-63
2023/05/04 10:18:30;;;;;;;0.40;0.30;;;;;;;18.48;81.02;95509.69;5072291;28;20475;-63
2023/05/04 10:21:17;;;;;;;0.60;0.40;;;;;;;18.80;78.46;95511.91;5072495;28;20519;-63
2023/05/04 10:24:15;;;;;;;0.77;0.73;;;;;;;19.51;78.57;95507.75;5072521;28;20528;-62
2023/05/04 10:26:58;;;;;;;1.30;0.73;;;;;;;19.19;80.50;95496.72;5071663;28;20472;-61
2023/05/04 10:29:29;;;;;;;0.40;0.40;;;;;;;19.68;77.06;95488.09;5072266;28;20972;-61
2023/05/04 10:31:58;;;;;;;0.47;0.47;;;;;;;19.74;76.24;95492.19;5072594;28;20433;-62
2023/05/04 10:34:28;;;;;;;0.63;0.53;;;;;;;20.01;77.93;95488.28;5069733;28;20841;-63
2023/05/04 10:36:59;;;;;;;0.50;0.40;;;;;;;20.45;71.37;95482.34;5061393;28;20802;-64
2023/05/04 10:39:29;;;;;;;0.40;0.40;;;;;;;20.95;70.03;95497.66;5071698;28;20525;-64
2023/05/04 10:41:59;;;;;;;0.40;0.40;;;;;;;20.97;67.98;95485.44;5071902;28;20503;-64
2023/05/04 10:44:28;;;;;;;0.50;0.50;;;;;;;21.12;67.56;95484.84;5071813;28;20437;-65
2023/05/04 10:46:58;;;;;;;0.50;0.50;;;;;;;21.10;67.64;95484.38;5072298;28;20442;-65
2023/05/04 10:49:27;;;;;;;0.40;0.30;;;;;;;20.91;67.81;95473.25;5072172;28;20441;-65
2023/05/04 10:52:08;;;;;;;0.40;0.20;;;;;;;21.10;66.12;95418.91;5071530;28;20525;-67
2023/05/04 10:54:37;;;;;;;0.90;0.90;;;;;;;22.53;65.42;95462.50;5048896;28;20524;-77
2023/05/04 10:57:06;;;;;;;0.83;0.83;;;;;;;22.47;62.78;95463.06;5075688;28;20441;-79
2023/05/04 10:59:35;;;;;;;0.40;0.40;;;;;;;23.72;62.93;95434.50;5072023;28;20438;-68
2023/05/04 11:02:05;;;;;;;0.50;0.50;;;;;;;24.33;59.60;95458.41;5071846;28;20441;-67
2023/05/04 11:04:34;;;;;;;0.60;0.50;;;;;;;23.08;61.31;95460.97;5072482;28;20965;-71
2023/05/04 11:07:05;;;;;;;0.57;0.30;;;;;;;22.71;61.03;95468.44;5072095;28;20448;-73
2023/05/04 11:09:39;;;;;;;4.37;1.00;;;;;;;21.03;59.94;95473.31;5072387;28;20437;-75
2023/05/04 11:12:10;;;;;;;0.47;0.47;;;;;;;20.66;60.89;95479.66;5071795;28;20433;-75
2023/05/04 11:14:41;;;;;;;1.43;0.40;;;;;;;21.74;60.50;95452.28;5072281;28;20977;-74
2023/05/04 11:17:13;;;;;;;0.50;0.30;;;;;;;21.33;62.41;95463.22;5071847;28;20553;-68
2023/05/04 11:19:51;;;;;;;1.10;1.10;;;;;;;20.22;64.10;95468.34;5071599;28;20453;-64
2023/05/04 11:22:20;;;;;;;0.40;0.33;;;;;;;20.78;63.64;95447.38;5071869;28;20539;-64
2023/05/04 11:24:50;;;;;;;0.70;0.70;;;;;;;20.42;63.78;95455.25;5071667;28;20477;-62
2023/05/04 11:27:23;;;;;;;0.40;0.30;;;;;;;20.41;64.18;95459.88;5071027;28;20511;-62
2023/05/04 11:29:55;;;;;;;1.83;0.30;;;;;;;20.36;64.93;95432.38;5071123;28;20445;-61
2023/05/04 11:32:34;;;;;;;0.60;0.60;;;;;;;21.09;63.55;95463.94;5071906;28;20773;-61
2023/05/04 11:35:03;;;;;;;0.40;0.30;;;;;;;21.12;62.14;95465.19;5045265;28;20441;-61
2023/05/04 11:37:39;;;;;;;0.47;0.33;;;;;;;21.50;62.18;95463.81;5071334;28;20485;-61